createdAt,value
2018-10-11T00:01:12.203Z,5.97
2018-10-11T00:03:40.269Z,5.70
2018-10-11T00:06:08.419Z,5.80
2018-10-11T00:08:36.601Z,5.97
2018-10-11T00:11:04.674Z,5.33
2018-10-11T00:13:33.174Z,6.23
2018-10-11T00:16:01.247Z,6.00
2018-10-11T00:18:29.313Z,5.20
2018-10-11T00:20:57.402Z,5.67
2018-10-11T00:23:25.473Z,5.87
2018-10-11T00:25:53.542Z,5.90
2018-10-11T00:28:21.722Z,6.10
2018-10-11T00:30:49.874Z,5.57
2018-10-11T00:33:17.837Z,6.37
2018-10-11T00:35:46.057Z,6.23
2018-10-11T00:38:14.139Z,5.37
2018-10-11T00:40:42.177Z,6.00
2018-10-11T00:43:10.241Z,6.40
2018-10-11T00:45:38.289Z,6.10
2018-10-11T00:48:06.410Z,5.50
2018-10-11T00:50:34.482Z,6.30
2018-10-11T00:53:02.644Z,6.50
2018-10-11T00:55:30.714Z,5.60
2018-10-11T00:57:58.779Z,6.40
2018-10-11T01:00:26.886Z,6.53
2018-10-11T01:02:55.062Z,6.37
2018-10-11T01:05:23.162Z,6.20
2018-10-11T01:07:51.253Z,6.53
2018-10-11T01:10:19.302Z,6.37
2018-10-11T01:12:47.358Z,6.20
2018-10-11T01:15:15.481Z,5.67
2018-10-11T01:17:43.666Z,6.47
2018-10-11T01:20:11.847Z,6.73
2018-10-11T01:22:40.034Z,6.47
2018-10-11T01:25:08.082Z,6.30
2018-10-11T01:27:36.127Z,6.80
2018-10-11T01:30:04.996Z,6.00
2018-10-11T01:32:32.990Z,6.77
2018-10-11T01:35:01.042Z,6.37
2018-10-11T01:37:29.131Z,6.70
2018-10-11T01:39:57.224Z,6.80
2018-10-11T01:42:25.263Z,6.57
2018-10-11T01:44:53.382Z,6.50
2018-10-11T01:47:21.454Z,6.10
2018-10-11T01:49:49.510Z,6.60
2018-10-11T01:52:17.582Z,6.60
2018-10-11T01:54:45.634Z,6.17
2018-10-11T01:57:13.696Z,6.07
2018-10-11T01:59:41.816Z,6.73
2018-10-11T02:02:09.854Z,6.40
2018-10-11T02:04:37.965Z,6.23
2018-10-11T02:07:06.231Z,6.50
2018-10-11T02:09:34.331Z,6.67
2018-10-11T02:12:02.342Z,6.40
2018-10-11T02:14:30.510Z,6.33
2018-10-11T02:16:58.556Z,6.23
2018-10-11T02:19:26.597Z,5.93
2018-10-11T02:21:54.638Z,6.33
2018-10-11T02:24:22.738Z,6.87
2018-10-11T02:26:50.837Z,7.03
2018-10-11T02:29:18.886Z,6.47
2018-10-11T02:31:46.969Z,6.63
2018-10-11T02:34:14.995Z,6.40
2018-10-11T02:36:43.094Z,6.20
2018-10-11T02:39:11.666Z,6.73
2018-10-11T02:41:39.869Z,7.10
2018-10-11T02:44:07.918Z,6.60
2018-10-11T02:46:35.970Z,7.30
2018-10-11T02:49:04.050Z,7.30
2018-10-11T02:51:32.089Z,7.03
2018-10-11T02:54:00.204Z,6.87
2018-10-11T02:56:28.526Z,6.70
2018-10-11T02:59:08.108Z,6.60
2018-10-11T03:01:36.158Z,7.33
2018-10-11T03:04:05.328Z,6.70
2018-10-11T03:06:35.258Z,7.20
2018-10-11T03:09:04.777Z,7.53
2018-10-11T03:11:32.967Z,6.93
2018-10-11T03:14:01.146Z,7.50
2018-10-11T03:16:29.258Z,6.63
2018-10-11T03:18:57.416Z,6.70
2018-10-11T03:21:25.463Z,6.40
2018-10-11T03:23:53.570Z,6.83
2018-10-11T03:26:21.618Z,6.53
2018-10-11T03:28:49.675Z,6.50
2018-10-11T03:31:17.734Z,7.50
2018-10-11T03:33:45.880Z,6.97
2018-10-11T03:36:13.958Z,6.83
2018-10-11T03:38:42.051Z,7.07
2018-10-11T03:41:10.094Z,7.10
2018-10-11T03:43:38.146Z,6.27
2018-10-11T03:46:06.517Z,6.70
2018-10-11T03:48:34.570Z,6.93
2018-10-11T03:51:02.614Z,6.93
2018-10-11T03:53:30.674Z,6.73
2018-10-11T03:55:58.723Z,7.17
2018-10-11T03:58:26.775Z,6.30
2018-10-11T04:00:54.832Z,5.77
2018-10-11T04:03:22.882Z,6.67
2018-10-11T04:05:50.971Z,7.43
2018-10-11T04:08:19.063Z,6.60
2018-10-11T04:10:47.149Z,6.60
2018-10-11T04:13:15.210Z,7.07
2018-10-11T04:15:43.316Z,6.90
2018-10-11T04:18:11.363Z,7.27
2018-10-11T04:20:39.474Z,6.90
2018-10-11T04:23:07.579Z,7.13
2018-10-11T04:25:35.684Z,6.73
2018-10-11T04:28:03.730Z,6.87
2018-10-11T04:30:31.800Z,6.77
2018-10-11T04:32:59.842Z,6.70
2018-10-11T04:35:27.906Z,6.97
2018-10-11T04:37:56.018Z,6.70
2018-10-11T04:40:24.090Z,6.67
2018-10-11T04:42:52.253Z,7.00
2018-10-11T04:45:20.306Z,6.57
2018-10-11T04:47:48.353Z,6.27
2018-10-11T04:50:16.454Z,6.60
2018-10-11T04:52:44.498Z,6.83
2018-10-11T04:55:12.534Z,6.90
2018-10-11T04:57:40.699Z,6.37
2018-10-11T05:00:08.758Z,6.97
2018-10-11T05:02:36.822Z,6.80
2018-10-11T05:05:04.918Z,6.53
2018-10-11T05:07:32.990Z,6.70
2018-10-11T05:10:01.060Z,6.53
2018-10-11T05:12:29.106Z,6.90
2018-10-11T05:14:57.230Z,6.10
2018-10-11T05:17:25.442Z,7.30
2018-10-11T05:19:53.443Z,7.07
2018-10-11T05:22:21.534Z,6.90
2018-10-11T05:24:49.594Z,6.67
2018-10-11T05:27:17.726Z,6.93
2018-10-11T05:29:45.821Z,6.77
2018-10-11T05:32:14.084Z,6.50
2018-10-11T05:34:42.074Z,7.00
2018-10-11T05:37:10.143Z,6.23
2018-10-11T05:39:38.278Z,6.90
2018-10-11T05:42:06.354Z,7.00
2018-10-11T05:44:34.566Z,7.50
2018-10-11T05:47:02.731Z,7.13
2018-10-11T05:49:30.766Z,7.07
2018-10-11T05:51:58.864Z,6.97
2018-10-11T05:54:26.948Z,7.10
2018-10-11T05:56:55.554Z,7.13
2018-10-11T05:59:23.689Z,6.77
2018-10-11T06:02:01.414Z,6.30
2018-10-11T06:04:29.561Z,6.77
2018-10-11T06:06:57.991Z,6.40
2018-10-11T06:09:26.679Z,12.77
2018-10-11T06:11:55.138Z,10.03
2018-10-11T06:14:23.179Z,11.30
2018-10-11T06:16:51.484Z,13.43
2018-10-11T06:19:19.622Z,14.10
2018-10-11T06:21:47.815Z,12.33
2018-10-11T06:24:16.065Z,14.07
2018-10-11T06:26:44.135Z,12.27
2018-10-11T06:29:12.394Z,12.20
2018-10-11T06:31:40.950Z,12.37
2018-10-11T06:34:09.547Z,13.27
2018-10-11T06:36:38.482Z,12.53
2018-10-11T06:39:10.451Z,12.70
2018-10-11T06:41:39.225Z,12.20
2018-10-11T06:44:10.159Z,13.03
2018-10-11T06:46:53.459Z,13.23
2018-10-11T06:51:58.757Z,13.17
2018-10-11T06:54:27.586Z,13.43
2018-10-11T06:57:00.359Z,13.87
2018-10-11T06:59:29.157Z,13.17
2018-10-11T07:01:57.655Z,11.53
2018-10-11T07:04:25.996Z,11.67
2018-10-11T07:06:54.179Z,13.63
2018-10-11T07:09:22.405Z,12.67
2018-10-11T07:11:50.625Z,11.23
2018-10-11T07:14:18.864Z,11.60
2018-10-11T07:16:47.102Z,13.07
2018-10-11T07:19:15.369Z,13.33
2018-10-11T07:21:43.615Z,13.40
2018-10-11T07:24:11.871Z,14.83
2018-10-11T07:26:40.377Z,12.03
2018-10-11T07:29:08.522Z,12.10
2018-10-11T07:31:36.925Z,14.03
2018-10-11T07:36:41.135Z,11.00
2018-10-11T07:39:10.612Z,10.93
2018-10-11T07:41:44.146Z,12.23
2018-10-11T07:44:12.374Z,11.97
2018-10-11T07:46:40.727Z,10.77
2018-10-11T07:49:09.079Z,11.37
2018-10-11T07:51:37.327Z,12.43
2018-10-11T07:54:05.667Z,9.63
2018-10-11T07:56:34.019Z,11.33
2018-10-11T07:59:02.339Z,13.90
2018-10-11T08:01:31.098Z,12.67
2018-10-11T08:03:59.324Z,11.87
2018-10-11T08:06:27.555Z,11.73
2018-10-11T08:08:55.795Z,9.53
2018-10-11T08:11:24.975Z,10.97
2018-10-11T08:13:53.034Z,13.13
2018-10-11T08:16:21.292Z,13.80
2018-10-11T08:18:49.526Z,12.07
2018-10-11T08:21:17.659Z,13.13
2018-10-11T08:23:46.116Z,13.47
2018-10-11T08:26:14.818Z,11.67
2018-10-11T08:28:42.602Z,13.10
2018-10-11T08:31:11.522Z,13.03
2018-10-11T08:33:39.706Z,14.03
2018-10-11T08:36:08.092Z,12.13
2018-10-11T08:38:36.344Z,12.10
2018-10-11T08:41:05.294Z,13.83
2018-10-11T08:43:33.596Z,12.03
2018-10-11T08:46:01.639Z,11.50
2018-10-11T08:48:29.979Z,10.60
2018-10-11T08:50:58.272Z,9.50
2018-10-11T08:53:26.423Z,11.43
2018-10-11T08:55:54.706Z,9.83
2018-10-11T08:58:22.815Z,9.77
2018-10-11T09:00:51.015Z,9.20
2018-10-11T09:03:19.250Z,7.43
2018-10-11T09:05:47.418Z,8.70
2018-10-11T09:08:16.333Z,9.10
2018-10-11T09:10:44.561Z,7.47
2018-10-11T09:13:12.654Z,8.37
2018-10-11T09:15:40.863Z,6.93
2018-10-11T09:18:09.081Z,7.97
2018-10-11T09:20:37.188Z,9.93
2018-10-11T09:23:05.411Z,8.30
2018-10-11T09:25:33.534Z,9.07
2018-10-11T09:28:01.772Z,8.50
2018-10-11T09:30:29.944Z,7.30
2018-10-11T09:32:58.326Z,7.07
2018-10-11T09:35:26.444Z,8.83
2018-10-11T09:37:54.655Z,8.33
2018-10-11T09:40:22.758Z,7.67
2018-10-11T09:42:50.915Z,9.17
2018-10-11T09:45:18.980Z,7.93
2018-10-11T09:47:47.064Z,6.90
2018-10-11T09:50:15.219Z,7.00
2018-10-11T09:52:43.414Z,5.73
2018-10-11T09:55:11.489Z,6.00
2018-10-11T09:57:39.743Z,6.77
2018-10-11T10:00:14.787Z,6.40
2018-10-11T10:02:42.880Z,6.17
2018-10-11T10:05:11.001Z,7.10
2018-10-11T10:07:39.253Z,5.97
2018-10-11T10:10:07.699Z,6.30
2018-10-11T10:12:35.742Z,5.27
2018-10-11T10:15:04.056Z,6.40
2018-10-11T10:17:32.225Z,6.87
2018-10-11T10:20:00.298Z,6.53
2018-10-11T10:22:28.526Z,4.87
2018-10-11T10:24:56.754Z,5.13
2018-10-11T10:27:25.054Z,5.27
2018-10-11T10:29:53.155Z,5.13
2018-10-11T10:32:21.279Z,5.97
2018-10-11T10:34:49.367Z,5.53
2018-10-11T10:37:17.446Z,5.17
2018-10-11T10:39:45.584Z,5.00
2018-10-11T10:42:13.638Z,4.77
2018-10-11T10:44:41.730Z,4.93
2018-10-11T10:47:09.810Z,4.60
2018-10-11T10:49:37.922Z,5.30
2018-10-11T10:52:06.095Z,4.90
2018-10-11T10:54:35.366Z,6.07
2018-10-11T10:57:04.013Z,5.97
2018-10-11T10:59:32.093Z,7.13
2018-10-11T11:02:00.326Z,5.30
2018-10-11T11:04:28.490Z,6.00
2018-10-11T11:06:56.570Z,7.30
2018-10-11T11:09:24.707Z,5.50
2018-10-11T11:11:52.771Z,6.47
2018-10-11T11:14:20.900Z,3.60
2018-10-11T11:16:49.030Z,5.07
2018-10-11T11:19:17.558Z,3.90
2018-10-11T11:21:45.650Z,4.17
2018-10-11T11:24:13.750Z,4.77
2018-10-11T11:26:41.822Z,4.20
2018-10-11T11:29:09.911Z,5.40
2018-10-11T11:31:38.018Z,4.97
2018-10-11T11:34:06.112Z,5.90
2018-10-11T11:36:34.157Z,5.13
2018-10-11T11:39:02.274Z,5.40
2018-10-11T11:41:30.334Z,3.47
2018-10-11T11:43:58.446Z,5.07
2018-10-11T11:46:26.518Z,4.20
2018-10-11T11:48:54.594Z,3.93
2018-10-11T11:51:22.749Z,4.40
2018-10-11T11:53:50.814Z,3.90
2018-10-11T11:56:18.883Z,4.20
2018-10-11T11:58:47.106Z,3.53
2018-10-11T12:01:15.174Z,3.73
2018-10-11T12:03:43.311Z,4.37
2018-10-11T12:06:11.366Z,3.87
2018-10-11T12:08:40.326Z,3.50
2018-10-11T12:11:08.504Z,3.30
2018-10-11T12:13:36.690Z,3.10
2018-10-11T12:16:04.843Z,3.37
2018-10-11T12:18:32.922Z,3.27
2018-10-11T12:21:01.126Z,3.73
2018-10-11T12:23:29.324Z,2.80
2018-10-11T12:25:57.405Z,3.00
2018-10-11T12:28:25.659Z,3.27
2018-10-11T12:30:53.870Z,2.93
2018-10-11T12:33:22.037Z,2.70
2018-10-11T12:35:50.191Z,2.70
2018-10-11T12:38:18.315Z,3.20
2018-10-11T12:40:46.432Z,2.50
2018-10-11T12:43:14.566Z,2.90
2018-10-11T12:45:42.698Z,3.10
2018-10-11T12:48:11.528Z,2.60
2018-10-11T12:50:39.638Z,2.73
2018-10-11T12:53:07.885Z,2.73
2018-10-11T12:55:36.069Z,2.73
2018-10-11T12:58:04.146Z,2.60
2018-10-11T13:00:32.263Z,2.60
2018-10-11T13:03:00.522Z,3.17
2018-10-11T13:05:28.444Z,2.47
2018-10-11T13:07:56.527Z,2.60
2018-10-11T13:10:24.652Z,3.13
2018-10-11T13:12:52.781Z,2.67
2018-10-11T13:15:20.862Z,2.67
2018-10-11T13:17:48.943Z,2.87
2018-10-11T13:20:17.063Z,2.90
2018-10-11T13:22:45.242Z,2.20
2018-10-11T13:25:13.342Z,2.43
2018-10-11T13:27:41.764Z,2.50
2018-10-11T13:30:09.904Z,2.40
2018-10-11T13:32:38.010Z,2.33
2018-10-11T13:35:06.548Z,2.53
2018-10-11T13:37:34.602Z,2.10
2018-10-11T13:40:02.865Z,2.37
2018-10-11T13:42:31.027Z,2.30
2018-10-11T13:44:59.162Z,2.77
2018-10-11T13:47:27.460Z,2.17
2018-10-11T13:49:55.560Z,2.20
2018-10-11T13:52:23.698Z,1.93
2018-10-11T13:54:51.826Z,2.00
2018-10-11T13:57:25.119Z,1.60
2018-10-11T13:59:48.011Z,2.40
2018-10-11T14:02:16.210Z,2.63
2018-10-11T14:04:44.327Z,2.20
2018-10-11T14:07:14.250Z,2.37
2018-10-11T14:09:42.443Z,2.20
2018-10-11T14:12:10.847Z,2.20
2018-10-11T14:14:38.990Z,1.80
2018-10-11T14:17:07.087Z,2.50
2018-10-11T14:19:35.154Z,2.47
2018-10-11T14:22:03.320Z,2.00
2018-10-11T14:24:31.733Z,2.30
2018-10-11T14:26:59.862Z,2.10
2018-10-11T14:29:27.938Z,2.00
2018-10-11T14:31:55.994Z,1.73
2018-10-11T14:34:24.063Z,2.00
2018-10-11T14:36:52.203Z,2.77
2018-10-11T14:39:20.528Z,2.37
2018-10-11T14:41:48.634Z,2.30
2018-10-11T14:44:16.727Z,2.17
2018-10-11T14:46:44.965Z,2.10
2018-10-11T14:49:13.055Z,2.47
2018-10-11T14:51:45.324Z,2.87
2018-10-11T14:54:09.190Z,2.00
2018-10-11T14:56:37.953Z,2.10
2018-10-11T14:59:06.374Z,2.40
2018-10-11T15:01:34.483Z,2.13
2018-10-11T15:04:02.672Z,1.93
2018-10-11T15:06:30.828Z,2.37
2018-10-11T15:08:58.922Z,2.63
2018-10-11T15:11:27.133Z,2.17
2018-10-11T15:13:56.128Z,3.30
2018-10-11T15:16:25.623Z,1.60
2018-10-11T15:18:53.773Z,1.93
2018-10-11T15:21:21.847Z,2.07
2018-10-11T15:23:49.951Z,2.20
2018-10-11T15:26:18.025Z,2.10
2018-10-11T15:28:46.075Z,2.17
2018-10-11T15:31:14.210Z,1.80
2018-10-11T15:33:42.284Z,2.00
2018-10-11T15:36:10.394Z,1.97
2018-10-11T15:38:38.450Z,1.90
2018-10-11T15:41:06.918Z,1.87
2018-10-11T15:43:35.058Z,1.90
2018-10-11T15:46:03.312Z,2.33
2018-10-11T15:48:32.019Z,2.00
2018-10-11T15:51:00.111Z,2.03
2018-10-11T15:53:28.226Z,2.10
2018-10-11T15:55:56.358Z,1.87
2018-10-11T15:58:24.516Z,2.10
2018-10-11T16:00:52.585Z,2.80
2018-10-11T16:03:20.749Z,2.57
2018-10-11T16:05:48.880Z,2.97
2018-10-11T16:08:16.997Z,2.60
2018-10-11T16:10:45.055Z,2.47
2018-10-11T16:13:13.230Z,2.53
2018-10-11T16:15:41.453Z,2.47
2018-10-11T16:18:09.445Z,2.70
2018-10-11T16:20:37.563Z,2.07
2018-10-11T16:23:05.632Z,2.50
2018-10-11T16:25:33.858Z,2.50
2018-10-11T16:28:02.019Z,2.57
2018-10-11T16:30:30.102Z,2.50
2018-10-11T16:32:58.197Z,2.67
2018-10-11T16:35:26.614Z,2.83
2018-10-11T16:37:54.703Z,2.83
2018-10-11T16:40:22.816Z,2.90
2018-10-11T16:42:50.891Z,2.70
2018-10-11T16:45:19.024Z,3.20
2018-10-11T16:47:47.116Z,2.80
2018-10-11T16:50:16.540Z,2.97
2018-10-11T16:52:44.647Z,2.90
2018-10-11T16:55:12.825Z,3.13
2018-10-11T16:57:41.531Z,3.73
2018-10-11T17:00:09.735Z,3.43
2018-10-11T17:02:37.842Z,3.47
2018-10-11T17:05:06.195Z,3.40
2018-10-11T17:07:34.258Z,3.80
2018-10-11T17:10:02.584Z,3.90
2018-10-11T17:12:30.558Z,3.93
2018-10-11T17:14:58.645Z,3.70
2018-10-11T17:17:26.764Z,3.43
2018-10-11T17:19:54.982Z,3.37
2018-10-11T17:22:23.262Z,3.43
2018-10-11T17:24:51.371Z,4.00
2018-10-11T17:27:19.462Z,4.00
2018-10-11T17:29:47.644Z,4.07
2018-10-11T17:32:15.674Z,3.57
2018-10-11T17:34:43.726Z,4.07
2018-10-11T17:37:11.789Z,3.77
2018-10-11T17:39:39.858Z,3.67
2018-10-11T17:42:08.006Z,4.20
2018-10-11T17:44:36.041Z,3.70
2018-10-11T17:47:04.142Z,4.20
2018-10-11T17:49:32.242Z,4.30
2018-10-11T17:52:00.394Z,4.57
2018-10-11T17:54:28.553Z,3.90
2018-10-11T17:56:56.633Z,4.00
2018-10-11T17:59:24.726Z,3.67
2018-10-11T18:01:52.794Z,4.17
2018-10-11T18:04:20.846Z,3.90
2018-10-11T18:06:48.929Z,4.40
2018-10-11T18:09:17.047Z,4.00
2018-10-11T18:11:45.111Z,4.27
2018-10-11T18:14:13.151Z,4.30
2018-10-11T18:16:41.341Z,3.87
2018-10-11T18:19:09.431Z,4.00
2018-10-11T18:21:37.601Z,3.80
2018-10-11T18:24:05.842Z,4.13
2018-10-11T18:26:33.918Z,3.80
2018-10-11T18:29:02.044Z,3.33
2018-10-11T18:31:30.144Z,4.03
2018-10-11T18:33:58.383Z,3.90
2018-10-11T18:36:26.536Z,4.20
2018-10-11T18:38:54.579Z,4.80
2018-10-11T18:41:22.645Z,3.50
2018-10-11T18:43:50.710Z,3.50
2018-10-11T18:46:18.782Z,3.73
2018-10-11T18:48:46.850Z,4.47
2018-10-11T18:51:15.019Z,4.20
2018-10-11T18:53:43.166Z,3.93
2018-10-11T18:56:11.264Z,4.00
2018-10-11T18:58:39.330Z,4.23
2018-10-11T19:01:07.421Z,3.70
2018-10-11T19:03:35.547Z,4.27
2018-10-11T19:06:03.654Z,4.10
2018-10-11T19:08:31.732Z,4.50
2018-10-11T19:10:59.876Z,4.17
2018-10-11T19:13:27.946Z,4.33
2018-10-11T19:15:56.010Z,4.63
2018-10-11T19:18:24.109Z,4.43
2018-10-11T19:20:52.319Z,4.63
2018-10-11T19:23:20.910Z,4.03
2018-10-11T19:25:49.662Z,4.00
2018-10-11T19:28:17.851Z,4.00
2018-10-11T19:30:45.947Z,4.60
2018-10-11T19:33:14.039Z,4.13
2018-10-11T19:35:42.147Z,4.63
2018-10-11T19:38:10.298Z,5.23
2018-10-11T19:40:38.454Z,4.80
2018-10-11T19:43:06.710Z,5.00
2018-10-11T19:45:34.830Z,6.03
2018-10-11T19:48:03.019Z,5.23
2018-10-11T19:50:31.120Z,5.60
2018-10-11T19:52:59.261Z,5.50
2018-10-11T19:55:27.326Z,6.27
2018-10-11T19:57:55.386Z,5.20
2018-10-11T20:00:23.483Z,6.10
2018-10-11T20:02:51.574Z,5.90
2018-10-11T20:05:19.646Z,5.83
2018-10-11T20:07:47.754Z,5.63
2018-10-11T20:10:15.810Z,5.60
2018-10-11T20:12:43.902Z,5.67
2018-10-11T20:15:12.064Z,5.00
2018-10-11T20:17:40.167Z,5.57
2018-10-11T20:20:08.258Z,5.23
2018-10-11T20:22:36.407Z,5.70
2018-10-11T20:25:04.976Z,5.97
2018-10-11T20:27:33.115Z,5.50
2018-10-11T20:30:01.262Z,5.23
2018-10-11T20:32:29.487Z,5.67
2018-10-11T20:34:57.822Z,5.90
2018-10-11T20:37:25.967Z,5.93
2018-10-11T20:39:54.151Z,5.60
2018-10-11T20:42:22.223Z,5.47
2018-10-11T20:44:50.323Z,4.83
2018-10-11T20:47:18.423Z,5.87
2018-10-11T20:49:46.496Z,5.20
2018-10-11T20:52:14.574Z,5.60
2018-10-11T20:54:44.178Z,5.10
2018-10-11T20:57:12.260Z,5.60
2018-10-11T20:59:40.450Z,5.27
2018-10-11T21:02:08.546Z,5.57
2018-10-11T21:04:37.078Z,5.23
2018-10-11T21:07:05.379Z,5.70
2018-10-11T21:09:33.429Z,5.60
2018-10-11T21:12:01.618Z,5.80
2018-10-11T21:14:29.826Z,5.33
2018-10-11T21:16:57.974Z,4.67
2018-10-11T21:19:26.035Z,4.93
2018-10-11T21:21:54.328Z,5.50
2018-10-11T21:24:22.450Z,5.90
2018-10-11T21:26:50.527Z,6.53
2018-10-11T21:29:18.662Z,7.30
2018-10-11T21:31:46.747Z,6.87
2018-10-11T21:34:14.904Z,7.27
2018-10-11T21:36:42.978Z,7.17
2018-10-11T21:39:12.583Z,7.03
2018-10-11T21:41:41.195Z,7.83
2018-10-11T21:44:09.343Z,8.10
2018-10-11T21:46:37.475Z,8.27
2018-10-11T21:49:05.669Z,8.43
2018-10-11T21:51:33.752Z,9.13
2018-10-11T21:54:01.799Z,9.83
2018-10-11T21:56:29.858Z,8.20
2018-10-11T21:58:57.932Z,8.23
2018-10-11T22:01:25.994Z,9.93
2018-10-11T22:03:54.534Z,9.03
2018-10-11T22:06:22.884Z,8.80
2018-10-11T22:08:50.982Z,7.73
2018-10-11T22:11:19.033Z,8.60
2018-10-11T22:13:47.183Z,7.70
2018-10-11T22:16:15.242Z,8.23
2018-10-11T22:18:43.323Z,8.93
2018-10-11T22:21:12.210Z,8.63
2018-10-11T22:23:41.758Z,7.50
2018-10-11T22:26:10.013Z,8.40
2018-10-11T22:28:38.636Z,8.90
2018-10-11T22:31:06.834Z,7.33
2018-10-11T22:33:34.898Z,8.90
2018-10-11T22:36:02.964Z,7.07
2018-10-11T22:38:31.079Z,6.87
2018-10-11T22:40:59.140Z,6.97
2018-10-11T22:43:27.238Z,7.73
2018-10-11T22:45:55.558Z,6.77
2018-10-11T22:48:23.605Z,7.63
2018-10-11T22:50:51.745Z,7.70
2018-10-11T22:53:19.777Z,7.30
2018-10-11T22:55:49.293Z,6.90
2018-10-11T22:58:17.915Z,7.10
2018-10-11T23:00:46.014Z,6.47
2018-10-11T23:03:14.074Z,7.17
2018-10-11T23:05:42.118Z,7.17
2018-10-11T23:08:10.182Z,6.33
2018-10-11T23:10:38.284Z,5.77
2018-10-11T23:13:06.450Z,6.70
2018-10-11T23:15:34.562Z,6.83
2018-10-11T23:18:02.747Z,7.17
2018-10-11T23:20:30.784Z,7.27
2018-10-11T23:22:58.837Z,6.80
2018-10-11T23:25:26.926Z,6.90
2018-10-11T23:27:54.987Z,7.23
2018-10-11T23:30:23.092Z,6.60
2018-10-11T23:32:51.144Z,6.80
2018-10-11T23:35:19.206Z,6.53
2018-10-11T23:37:47.266Z,6.70
2018-10-11T23:40:15.396Z,7.00
2018-10-11T23:42:43.447Z,7.60
2018-10-11T23:45:12.415Z,7.07
2018-10-11T23:47:41.110Z,6.77
2018-10-11T23:50:09.316Z,7.40
2018-10-11T23:52:37.534Z,6.63
2018-10-11T23:55:06.662Z,7.30
2018-10-11T23:57:34.770Z,7.93
